Holualoa, HI (96725)

9:32 PM HST on July 30, 2014 (GMT -1000)
Kona Palisades (KHIKAILU24) Elev 1007 ft | 19.72 °N, 155.99 °W | Change Station

Current weather conditions updated 11 minutes ago

Mostly Cloudy
Mostly Cloudy
73.5 °F
Feels Like 73 °F
N
3.0
Wind Variable Wind from ENE
Gusts 4.0 mph

Tomorrow is forecast to be nearly the same temperature as today. Afternoon showers.

Today
High -- | Low -- °F
--% Chance of Precip.
Yesterday
High -- | Low -- °F
Precip. -- in
5:59 AM 7:01 PM
Waxing Crescent, 16% visible
Pressure 29.99 in
Visibility 10.0 miles
Clouds Scattered Clouds 3700 ft
Mostly Cloudy 4700 ft
Mostly Cloudy 5500 ft
Heat Index 73 °F
Dew Point 68 °F
Humidity 84%
Rainfall 0.00 in
Snow Depth Not available.
UV 0 out of 12
Pollen Not available.
Air Quality Not available.
Flu Activity Not available.
METAR PHKO 310653Z 00000KT 10SM SCT037 BKN047 BKN055 27/21 A2999 RMK AO2 SLP156 T02720206

More Conditions Fewer Conditions

Pressure 29.99 in
Visibility 10.0 miles
Clouds Scattered Clouds 3700 ft
Mostly Cloudy 4700 ft
Mostly Cloudy 5500 ft
Heat Index 73 °F
Dew Point 68 °F
Humidity 84%
Rainfall 0.00 in
Snow Depth Not available.
UV 0 out of 12
Pollen Not available.
Air Quality Not available.
Flu Activity Not available.
METAR PHKO 310653Z 00000KT 10SM SCT037 BKN047 BKN055 27/21 A2999 RMK AO2 SLP156 T02720206

More Conditions Fewer Conditions

10-Day Weather Forecast

Almanac

Astronomy

Jul. 30, 2014 Rise Set
Actual Time 5:59 AM HST 7:01 PM HST
Civil Twilight 5:35 AM HST 7:24 PM HST
Nautical Twilight 5:08 AM HST 7:52 PM HST
Astronomical Twilight 4:39 AM HST 8:20 PM HST
Moon 9:05 AM HST (7/30) 9:28 PM HST (7/30)
Length of Visible Light 13h 48m
Length of Day
13h 01m
Tomorrow will be 0m 49s shorter.
Waxing Crescent, 16% of the Moon is Illuminated
Jul 31
Waxing Crescent
Aug 3
First Quarter
Aug 10
Full
Aug 17
Last Quarter
Aug 25
New

Yesterday's Extremes

State Highs State Lows

Community

WunderPhotos

Upload Photos

1,739,258 photos uploaded!

Nearby

Snow Depth

Station Depth Elevation
No new snow has been reported.

Earthquake Activity

City Distance Mag. Time & Date
No recent earthquake activity has been reported nearby.
Minimum magnitude displayed is 2.5.

Coastal Water Temperatures

Place Temperature
No Stations Reporting

Nearby Weather Stations

Station Location Temp. Heat Index Dew Point Humidity Wind Precip. Elev Updated Type
Kona Palisades, Kailua-Kona, HI 73.5 °F 73 °F 68 °F 84% ENE  at  3.0 mph 0.00 in / hr 1007 ft 9:21 PM HST Normal
Halemalu, Captain Cook, HI 71.6 °F - 71 °F 99% East  at  0.0 mph 0.00 in / hr 1700 ft 9:32 PM HST Rapid Fire

Show More Stations Show Fewer Stations